Peshawar International Airport
OPPS : now visible

Airfield :











YOU CAN JOIN US ON...

 
LOGIN :

Register | Disclaimer

   EN    FR    IT 

 









Legend :    VFR   Marginal VFR   IFR   Intensive IFR   Very Intensive IFR
Visi :
Ceiling :
>= 8 km
>= 3000ft
5 to 8 km
1000 to 3000 ft
1500m to 5 km
500 to 1000 ft
800 to 1500m
200 to 500 ft
< 800m
< 200 ft
Symbols :   Thunderstorms  Fog  Heavy snow  Heavy precipitations  Wind > 20 kt







- Airport Elevation : 1158 ft
- IATA code : PEW


OPPS - Peshawar International

CURRENT METAR :
  • 181300Z 21010KT 8000 HZ FEW045 36/17 Q999

EXPIRED METARs :
  • 181100Z 05010KT 8000 HZ FEW045 36/17 Q999
  • 181030Z 05010KT 8000 HZ SCT045 35/16 Q1000

TAF TAF OPPS
Valid from the 18 at 12:00 until the 19 at 18:00 UTC


180928Z 1812/1918 21015KT 6000 FEW040 SCT100
TEMPO 1812/1816 21015G25KT VCTS FEW030TCU SCT040 SCT100
TEMPO 1909/1914 21015G35KT 4000 TS FEW030TCU/CB SCT040 BKN100
TEMPO 1914/1918 21015G25KT VCTS FEW030TCU SCT040 SCT100
OPLR FIR / Asia



MET'MAP, your aeronautical weather chart ! - Copyright ORBIFLY December 2007 - Disclaimer

ORBIFLY MET'MAP TEAM :

Programming & Development : Alexandra Zaïnal
Concept & Development : Baudouin d'Aumeries
Co-Development & Prog : Marc-Olivier Méhu
Technical & hardware support : Manuel Goepfert

Contact : metmap@orbifly.com




SOURCES & CREDITS :

   NOAA       Earth
Advisory